Time;durP1;ratioP1;P1;durP2;ratioP2;P2;SDS_P1;SDS_P2;PMS_P1;PMS_P2;Temp;Humidity;BMP_temperature;BMP_pressure;BME280_temperature;BME280_humidity;BME280_pressure;Samples;Min_cycle;Max_cycle;Signal;HPM_P1;HPM_P2
2021/10/20 00:01:45;;;;;;;10.50;7.35;;;16.30;80.30;;;;;;5004402;28;20097;-71
2021/10/20 00:04:11;;;;;;;10.90;7.50;;;16.30;80.30;;;;;;5004920;28;20426;-72
2021/10/20 00:06:37;;;;;;;9.18;6.50;;;16.20;80.20;;;;;;5000767;28;20639;-71
2021/10/20 00:09:04;;;;;;;12.52;7.60;;;16.20;80.30;;;;;;5007444;28;20481;-71
2021/10/20 00:11:29;;;;;;;12.32;8.25;;;16.30;80.30;;;;;;5002832;28;20129;-71
2021/10/20 00:13:55;;;;;;;11.65;7.75;;;16.20;80.30;;;;;;5007227;28;20125;-71
2021/10/20 00:16:22;;;;;;;10.52;7.50;;;16.20;80.50;;;;;;5005920;28;20181;-72
2021/10/20 00:18:49;;;;;;;13.55;6.90;;;16.20;80.50;;;;;;5002727;28;20041;-71
2021/10/20 00:21:23;;;;;;;13.10;7.82;;;16.20;80.60;;;;;;5003006;28;20365;-71
2021/10/20 00:23:48;;;;;;;11.27;7.05;;;16.10;80.80;;;;;;5009843;28;20088;-71
2021/10/20 00:26:14;;;;;;;9.57;7.05;;;16.10;80.70;;;;;;5006182;28;20034;-73
2021/10/20 00:28:40;;;;;;;10.65;7.53;;;16.20;80.80;;;;;;5012656;28;20038;-71
2021/10/20 00:31:06;;;;;;;11.00;6.93;;;16.20;80.80;;;;;;5010325;28;20060;-71
2021/10/20 00:33:31;;;;;;;11.88;7.90;;;16.20;80.90;;;;;;5005716;28;20119;-72
2021/10/20 00:35:57;;;;;;;11.50;7.78;;;16.10;80.90;;;;;;5005973;28;20027;-71
2021/10/20 00:38:23;;;;;;;11.95;7.07;;;16.10;80.90;;;;;;5006310;28;20041;-72
2021/10/20 00:40:52;;;;;;;12.48;7.40;;;16.20;81.00;;;;;;5009184;28;20446;-71
2021/10/20 00:43:19;;;;;;;11.45;7.60;;;16.20;80.90;;;;;;5008163;28;20060;-71
2021/10/20 00:45:45;;;;;;;10.13;7.55;;;16.10;80.80;;;;;;5010136;28;20109;-71
2021/10/20 00:48:10;;;;;;;10.85;7.35;;;16.10;81.00;;;;;;5009058;28;20117;-71
2021/10/20 00:50:36;;;;;;;10.75;7.15;;;16.10;81.10;;;;;;5010659;28;20125;-71
2021/10/20 00:53:03;;;;;;;14.05;7.60;;;16.10;81.10;;;;;;5008426;28;20559;-71
2021/10/20 00:55:29;;;;;;;13.07;7.85;;;16.10;81.00;;;;;;5009525;28;20030;-71
2021/10/20 00:57:55;;;;;;;11.63;7.65;;;16.10;81.10;;;;;;5014015;28;20536;-71
2021/10/20 01:00:21;;;;;;;11.80;8.55;;;16.10;81.40;;;;;;5009356;28;20121;-72
2021/10/20 01:02:47;;;;;;;11.75;7.95;;;16.10;81.40;;;;;;5004739;28;20034;-71
2021/10/20 01:05:13;;;;;;;11.00;7.70;;;16.10;81.40;;;;;;5007172;28;20519;-71
2021/10/20 01:07:40;;;;;;;11.65;8.13;;;16.10;81.40;;;;;;5009679;28;20132;-71
2021/10/20 01:10:08;;;;;;;11.57;7.90;;;16.10;81.40;;;;;;5006398;28;20050;-72
2021/10/20 01:12:35;;;;;;;13.80;8.13;;;16.10;81.40;;;;;;5002040;28;20034;-71
2021/10/20 01:15:08;;;;;;;12.00;7.78;;;16.10;81.30;;;;;;5008591;28;20042;-71
2021/10/20 01:17:33;;;;;;;11.20;7.30;;;16.10;81.40;;;;;;5010803;28;20041;-72
2021/10/20 01:20:02;;;;;;;11.05;7.25;;;16.10;81.40;;;;;;5006134;28;20022;-71
2021/10/20 01:22:29;;;;;;;11.73;8.25;;;16.10;81.50;;;;;;5008847;28;20548;-71
2021/10/20 01:24:54;;;;;;;11.68;7.65;;;16.00;81.60;;;;;;5009113;28;20437;-71
2021/10/20 01:27:20;;;;;;;14.57;8.15;;;16.10;81.60;;;;;;5007024;28;20145;-71
2021/10/20 01:29:45;;;;;;;11.18;8.35;;;16.10;81.70;;;;;;5009153;28;20111;-71
2021/10/20 01:32:11;;;;;;;10.80;8.00;;;16.10;81.60;;;;;;5008735;28;20021;-71
2021/10/20 01:34:37;;;;;;;13.00;9.07;;;16.10;81.70;;;;;;5009778;28;20153;-71
2021/10/20 01:37:04;;;;;;;11.13;8.38;;;16.00;81.90;;;;;;5009494;28;20136;-71
2021/10/20 01:39:32;;;;;;;13.77;8.88;;;15.90;82.10;;;;;;5010261;28;20520;-71
2021/10/20 01:41:58;;;;;;;12.60;8.57;;;15.90;82.20;;;;;;5005387;28;20041;-72
2021/10/20 01:44:24;;;;;;;11.43;8.82;;;16.00;82.10;;;;;;5009448;28;20026;-71
2021/10/20 01:46:50;;;;;;;13.77;8.65;;;16.00;82.10;;;;;;5007928;28;20160;-71
2021/10/20 01:49:16;;;;;;;13.90;9.05;;;16.00;82.00;;;;;;5003905;28;20061;-71
2021/10/20 01:51:42;;;;;;;11.13;8.50;;;16.00;82.20;;;;;;5009004;28;20072;-71
2021/10/20 01:54:08;;;;;;;12.85;8.68;;;16.00;82.20;;;;;;5007303;28;20042;-70
2021/10/20 01:56:34;;;;;;;13.73;8.20;;;15.90;82.10;;;;;;5023298;28;20044;-70
2021/10/20 01:59:00;;;;;;;12.32;9.38;;;15.90;82.30;;;;;;5004204;28;20536;-73
2021/10/20 02:01:26;;;;;;;14.13;9.30;;;15.90;82.20;;;;;;5007070;28;20077;-71
2021/10/20 02:03:51;;;;;;;10.93;8.52;;;15.90;82.40;;;;;;5009198;28;20457;-71
2021/10/20 02:06:19;;;;;;;12.05;8.13;;;15.80;82.60;;;;;;5006811;28;20612;-71
2021/10/20 02:08:46;;;;;;;13.05;9.05;;;15.90;82.70;;;;;;5008007;28;20029;-71
2021/10/20 02:11:12;;;;;;;11.70;8.35;;;15.80;82.90;;;;;;5005999;28;20040;-71
2021/10/20 02:13:41;;;;;;;12.45;8.00;;;15.80;82.90;;;;;;5006322;28;20516;-71
2021/10/20 02:16:07;;;;;;;11.93;9.05;;;15.80;82.90;;;;;;5003393;28;20551;-71
2021/10/20 02:18:33;;;;;;;12.65;9.05;;;15.80;83.00;;;;;;5006295;28;20125;-71
2021/10/20 02:20:59;;;;;;;13.25;9.10;;;15.80;83.00;;;;;;5008190;28;20087;-71
2021/10/20 02:23:25;;;;;;;12.50;8.05;;;15.80;82.90;;;;;;5004857;28;20113;-73
2021/10/20 02:25:51;;;;;;;13.05;9.23;;;15.80;83.00;;;;;;5007453;28;20402;-71
2021/10/20 02:28:17;;;;;;;11.55;8.75;;;15.90;82.90;;;;;;5012644;28;20525;-71
2021/10/20 02:30:42;;;;;;;12.85;8.73;;;15.90;82.80;;;;;;5008035;28;20048;-72
2021/10/20 02:33:09;;;;;;;12.38;8.85;;;15.80;82.80;;;;;;5005554;28;20497;-71
2021/10/20 02:35:35;;;;;;;11.75;8.80;;;15.90;82.90;;;;;;5007253;28;20034;-71
2021/10/20 02:38:01;;;;;;;12.43;8.70;;;15.90;82.60;;;;;;5008753;28;20057;-72
2021/10/20 02:40:27;;;;;;;13.75;9.82;;;15.90;82.50;;;;;;5007843;28;20040;-73
2021/10/20 02:42:53;;;;;;;12.43;8.50;;;15.90;82.60;;;;;;5007783;28;20385;-71
2021/10/20 02:45:19;;;;;;;11.05;8.70;;;15.90;82.70;;;;;;5006131;28;20030;-71
2021/10/20 02:47:45;;;;;;;15.05;9.52;;;15.90;82.70;;;;;;5010661;28;20057;-71
2021/10/20 02:50:11;;;;;;;12.88;9.38;;;15.90;82.50;;;;;;5006420;28;20022;-71
2021/10/20 02:52:38;;;;;;;15.40;8.82;;;15.90;82.70;;;;;;5009340;28;20064;-71
2021/10/20 02:55:05;;;;;;;14.50;9.10;;;15.90;82.60;;;;;;5007767;28;20613;-70
2021/10/20 02:57:30;;;;;;;12.45;8.02;;;15.90;82.80;;;;;;5005928;28;20045;-71
2021/10/20 02:59:57;;;;;;;12.60;9.27;;;15.90;82.70;;;;;;5009637;28;20037;-71
2021/10/20 03:02:24;;;;;;;12.15;8.23;;;15.90;82.70;;;;;;5005004;28;20034;-70
2021/10/20 03:04:49;;;;;;;12.52;9.00;;;15.90;82.80;;;;;;5010069;28;20144;-71
2021/10/20 03:07:15;;;;;;;11.25;8.48;;;15.80;82.70;;;;;;5006246;28;20431;-71
2021/10/20 03:09:41;;;;;;;12.65;8.02;;;15.80;82.80;;;;;;5007970;28;20085;-71
2021/10/20 03:12:06;;;;;;;12.60;8.52;;;15.80;82.80;;;;;;5006444;28;20083;-71
2021/10/20 03:14:32;;;;;;;13.52;7.82;;;15.80;82.90;;;;;;5011020;28;20038;-72
2021/10/20 03:16:58;;;;;;;10.68;8.20;;;15.80;82.80;;;;;;5008308;28;20509;-71
2021/10/20 03:19:23;;;;;;;12.95;8.80;;;15.80;82.60;;;;;;5002844;28;20533;-70
2021/10/20 03:21:49;;;;;;;11.50;8.38;;;15.80;82.50;;;;;;5005678;28;20528;-71
2021/10/20 03:24:15;;;;;;;11.48;9.38;;;15.90;82.50;;;;;;5006108;28;20433;-71
2021/10/20 03:26:40;;;;;;;12.90;8.90;;;15.90;82.40;;;;;;5003153;28;20168;-71
2021/10/20 03:29:06;;;;;;;14.65;8.85;;;15.90;82.30;;;;;;5008950;28;20041;-71
2021/10/20 03:31:32;;;;;;;13.55;8.70;;;15.90;82.30;;;;;;5008732;28;20465;-71
2021/10/20 03:33:58;;;;;;;9.25;7.40;;;16.00;82.20;;;;;;5003206;28;20033;-71
2021/10/20 03:36:24;;;;;;;10.63;8.13;;;15.90;82.30;;;;;;5002765;28;20061;-72
2021/10/20 03:38:49;;;;;;;10.85;7.95;;;16.00;82.20;;;;;;5000908;28;20064;-71
2021/10/20 03:41:15;;;;;;;11.68;8.75;;;15.90;82.20;;;;;;5005613;28;20034;-71
2021/10/20 03:43:41;;;;;;;10.90;8.10;;;16.00;82.10;;;;;;5008273;28;20439;-71
2021/10/20 03:46:06;;;;;;;12.48;8.13;;;16.00;81.90;;;;;;5011338;28;20034;-71
2021/10/20 03:48:32;;;;;;;12.20;8.00;;;16.00;81.90;;;;;;5008006;28;20030;-71
2021/10/20 03:50:58;;;;;;;12.80;8.20;;;16.00;81.90;;;;;;5006127;28;20091;-70
2021/10/20 03:53:24;;;;;;;12.52;8.43;;;16.00;81.90;;;;;;5005459;28;20069;-72
2021/10/20 03:55:49;;;;;;;12.82;8.10;;;16.00;82.00;;;;;;5013221;28;20397;-71
2021/10/20 03:58:17;;;;;;;12.95;7.93;;;15.90;82.10;;;;;;5010300;28;20038;-70
2021/10/20 04:00:43;;;;;;;10.57;8.00;;;15.90;82.10;;;;;;5010585;28;20054;-71
2021/10/20 04:03:09;;;;;;;13.80;8.27;;;15.90;82.10;;;;;;5007869;28;20057;-72
2021/10/20 04:05:34;;;;;;;12.18;8.20;;;16.00;82.10;;;;;;5008351;28;20030;-72
2021/10/20 04:08:00;;;;;;;12.02;8.50;;;15.90;82.20;;;;;;5012091;28;20030;-71
2021/10/20 04:10:26;;;;;;;11.77;8.40;;;16.00;82.00;;;;;;5010460;28;20072;-74
2021/10/20 04:12:53;;;;;;;12.18;8.45;;;16.00;82.00;;;;;;5009765;28;20037;-71
2021/10/20 04:15:21;;;;;;;11.88;7.70;;;16.00;82.10;;;;;;5007625;28;20374;-71
2021/10/20 04:17:47;;;;;;;11.98;7.97;;;15.90;82.30;;;;;;5010665;28;20030;-71
2021/10/20 04:20:15;;;;;;;13.65;8.23;;;16.00;82.20;;;;;;5009315;28;20034;-72
2021/10/20 04:22:41;;;;;;;12.02;8.15;;;15.90;82.20;;;;;;5005913;28;20118;-71
2021/10/20 04:25:08;;;;;;;11.30;8.18;;;15.90;82.20;;;;;;5008188;28;20040;-73
2021/10/20 04:27:34;;;;;;;12.73;8.50;;;15.90;82.30;;;;;;5003108;28;20037;-71
2021/10/20 04:30:00;;;;;;;11.43;8.25;;;15.90;82.30;;;;;;5006857;28;20124;-70
2021/10/20 04:32:27;;;;;;;11.98;8.07;;;15.90;82.40;;;;;;5006431;28;20672;-71
2021/10/20 04:34:53;;;;;;;12.98;7.90;;;15.90;82.50;;;;;;5006053;28;20042;-71
2021/10/20 04:37:25;;;;;;;10.70;8.02;;;15.90;82.70;;;;;;5006370;28;20033;-71
2021/10/20 04:39:53;;;;;;;12.27;8.32;;;15.90;82.80;;;;;;5007406;28;20026;-71
2021/10/20 04:42:20;;;;;;;10.45;7.90;;;15.90;82.70;;;;;;5008950;28;20465;-70
2021/10/20 04:44:45;;;;;;;13.85;8.93;;;15.90;82.80;;;;;;5007562;28;20049;-71
2021/10/20 04:47:11;;;;;;;11.40;8.98;;;15.90;83.00;;;;;;5008845;28;20041;-71
2021/10/20 04:49:37;;;;;;;11.25;8.05;;;15.90;83.00;;;;;;5009952;28;20445;-72
2021/10/20 04:52:03;;;;;;;13.25;9.02;;;15.90;83.00;;;;;;5009545;28;20037;-72
2021/10/20 04:54:28;;;;;;;12.77;8.10;;;15.90;83.00;;;;;;5009346;28;20304;-71
2021/10/20 04:56:54;;;;;;;12.07;8.23;;;15.90;82.80;;;;;;5006903;28;20061;-70
2021/10/20 04:59:19;;;;;;;12.10;8.52;;;15.90;82.90;;;;;;5005683;28;20030;-70
2021/10/20 05:01:45;;;;;;;11.75;8.48;;;15.90;83.00;;;;;;5007829;28;20436;-71
2021/10/20 05:04:11;;;;;;;13.55;8.80;;;15.90;83.10;;;;;;5002401;28;20118;-70
2021/10/20 05:06:36;;;;;;;14.13;8.82;;;15.90;83.10;;;;;;5007550;28;20042;-70
2021/10/20 05:09:02;;;;;;;10.50;7.78;;;15.90;83.20;;;;;;5003794;28;20430;-71
2021/10/20 05:11:28;;;;;;;13.70;7.90;;;15.90;83.20;;;;;;5010377;28;20042;-71
2021/10/20 05:13:53;;;;;;;11.15;8.38;;;15.90;83.10;;;;;;5005645;28;20140;-70
2021/10/20 05:16:19;;;;;;;10.02;8.43;;;16.00;83.10;;;;;;5006018;28;20027;-71
2021/10/20 05:18:44;;;;;;;10.35;8.05;;;16.10;82.90;;;;;;5013041;28;20029;-72
2021/10/20 05:21:10;;;;;;;11.32;8.23;;;16.10;82.90;;;;;;5007308;28;20044;-71
2021/10/20 05:23:36;;;;;;;12.13;8.32;;;16.00;82.90;;;;;;5006518;28;20457;-73
2021/10/20 05:26:01;;;;;;;12.85;8.07;;;16.00;83.00;;;;;;5008238;28;20100;-71
2021/10/20 05:28:28;;;;;;;14.00;8.93;;;16.10;83.00;;;;;;5012364;28;20033;-71
2021/10/20 05:30:53;;;;;;;13.63;8.70;;;16.10;83.00;;;;;;5007104;28;20381;-71
2021/10/20 05:33:19;;;;;;;11.10;7.93;;;16.10;83.10;;;;;;5008492;28;20042;-71
2021/10/20 05:35:45;;;;;;;11.38;8.52;;;16.10;83.00;;;;;;5012815;28;20034;-72
2021/10/20 05:38:10;;;;;;;11.75;8.25;;;16.10;83.00;;;;;;5009115;28;20049;-71
2021/10/20 05:40:36;;;;;;;14.23;8.80;;;16.10;83.10;;;;;;5006961;28;20049;-71
2021/10/20 05:43:02;;;;;;;15.15;9.07;;;16.10;83.10;;;;;;5008367;28;20033;-71
2021/10/20 05:45:28;;;;;;;11.05;8.38;;;16.10;83.20;;;;;;5008264;28;20029;-71
2021/10/20 05:47:54;;;;;;;12.90;8.43;;;16.10;83.20;;;;;;5008566;28;20040;-71
2021/10/20 05:50:20;;;;;;;11.55;9.00;;;16.10;83.40;;;;;;5007808;28;20038;-71
2021/10/20 05:52:45;;;;;;;12.23;8.88;;;16.10;83.40;;;;;;5010155;28;20061;-74
2021/10/20 05:55:12;;;;;;;13.95;8.68;;;16.10;83.60;;;;;;5006997;28;20104;-71
2021/10/20 05:57:38;;;;;;;14.40;9.52;;;16.10;84.20;;;;;;5010060;28;20034;-71
2021/10/20 06:00:07;;;;;;;13.40;9.70;;;16.10;84.90;;;;;;5009620;28;20474;-71
2021/10/20 06:02:33;;;;;;;13.13;10.05;;;16.10;85.50;;;;;;5007847;28;20057;-71
2021/10/20 06:04:58;;;;;;;16.10;10.45;;;16.00;86.30;;;;;;5007084;28;20080;-72
2021/10/20 06:07:24;;;;;;;14.50;11.02;;;15.80;86.90;;;;;;5010059;28;20465;-71
2021/10/20 06:09:50;;;;;;;12.52;10.23;;;15.80;87.40;;;;;;5010496;28;20036;-71
2021/10/20 06:12:15;;;;;;;14.88;11.18;;;15.70;87.80;;;;;;5006256;28;20221;-71
2021/10/20 06:14:41;;;;;;;15.25;10.80;;;15.70;88.00;;;;;;5007586;28;20100;-71
2021/10/20 06:17:06;;;;;;;13.82;11.15;;;15.60;88.30;;;;;;5008352;28;20112;-72
2021/10/20 06:19:32;;;;;;;16.23;11.50;;;15.60;88.50;;;;;;5006645;28;20362;-71
2021/10/20 06:21:58;;;;;;;15.50;11.45;;;15.60;88.60;;;;;;5005389;28;20365;-74
2021/10/20 06:24:24;;;;;;;13.52;12.13;;;15.50;88.80;;;;;;5004184;28;20034;-71
2021/10/20 06:26:49;;;;;;;14.75;11.98;;;15.50;88.90;;;;;;5009259;28;20481;-72
2021/10/20 06:29:17;;;;;;;17.30;12.73;;;15.50;89.10;;;;;;5009798;28;20036;-71
2021/10/20 06:31:43;;;;;;;13.85;11.40;;;15.50;89.20;;;;;;5007792;28;20441;-71
2021/10/20 06:34:09;;;;;;;13.93;11.85;;;15.40;89.40;;;;;;5007716;28;20557;-71
2021/10/20 06:36:36;;;;;;;14.77;11.85;;;15.40;89.60;;;;;;5008354;28;20034;-73
2021/10/20 06:39:03;;;;;;;16.52;11.95;;;15.40;89.80;;;;;;5006456;28;20053;-72
2021/10/20 06:41:29;;;;;;;15.98;12.20;;;15.40;89.90;;;;;;5008927;28;20036;-71
2021/10/20 06:43:55;;;;;;;17.70;12.63;;;15.40;89.90;;;;;;5007908;28;20118;-71
2021/10/20 06:46:20;;;;;;;16.30;12.73;;;15.40;89.80;;;;;;5006081;28;20169;-71
2021/10/20 06:48:47;;;;;;;17.65;12.50;;;15.50;89.80;;;;;;5009389;28;20041;-71
2021/10/20 06:51:13;;;;;;;16.05;12.05;;;15.40;89.80;;;;;;5005146;28;20125;-70
2021/10/20 06:53:39;;;;;;;19.50;13.20;;;15.50;89.80;;;;;;5007702;28;20130;-71
2021/10/20 06:56:09;;;;;;;16.30;11.43;;;15.50;89.70;;;;;;5007089;28;20116;-71
2021/10/20 06:58:35;;;;;;;15.68;12.70;;;15.50;89.70;;;;;;5009537;28;20377;-71
2021/10/20 07:01:01;;;;;;;13.98;11.70;;;15.50;89.70;;;;;;5007839;28;20450;-71
2021/10/20 07:03:27;;;;;;;15.07;11.82;;;15.50;89.80;;;;;;5006741;28;20030;-71
2021/10/20 07:05:53;;;;;;;16.30;12.38;;;15.50;89.80;;;;;;5005224;28;20034;-71
2021/10/20 07:08:18;;;;;;;15.07;12.30;;;15.50;89.80;;;;;;5008145;28;20030;-70
2021/10/20 07:10:44;;;;;;;17.42;13.20;;;15.50;89.80;;;;;;5005382;28;20033;-71
2021/10/20 07:13:10;;;;;;;13.95;12.35;;;15.50;89.90;;;;;;5000483;28;20064;-71
2021/10/20 07:15:36;;;;;;;15.13;12.43;;;15.50;90.00;;;;;;5002495;28;20080;-70
2021/10/20 07:18:02;;;;;;;15.90;13.10;;;15.50;90.20;;;;;;4998874;28;20037;-70
2021/10/20 07:20:27;;;;;;;15.35;13.30;;;15.50;90.20;;;;;;5003431;28;20033;-69
2021/10/20 07:22:53;;;;;;;14.90;12.02;;;15.50;90.20;;;;;;5009276;28;20703;-72
2021/10/20 07:25:19;;;;;;;16.63;12.77;;;15.50;90.10;;;;;;5005590;28;20060;-70
2021/10/20 07:27:48;;;;;;;17.85;13.25;;;15.50;90.20;;;;;;5007037;28;20446;-70
2021/10/20 07:30:15;;;;;;;16.50;13.18;;;15.50;90.30;;;;;;5008965;28;20417;-70
2021/10/20 07:32:42;;;;;;;17.45;12.57;;;15.50;90.30;;;;;;5011162;28;20060;-70
2021/10/20 07:35:09;;;;;;;18.15;13.82;;;15.50;90.40;;;;;;5006274;28;20212;-72
2021/10/20 07:37:35;;;;;;;17.75;13.38;;;15.50;90.40;;;;;;5001366;28;20069;-70
2021/10/20 07:40:01;;;;;;;15.55;13.18;;;15.60;90.40;;;;;;4998731;28;20026;-71
2021/10/20 07:42:27;;;;;;;16.92;13.75;;;15.60;90.50;;;;;;5006248;28;20100;-70
2021/10/20 07:44:52;;;;;;;17.27;12.90;;;15.60;90.40;;;;;;5006282;28;20409;-70
2021/10/20 07:47:20;;;;;;;16.98;13.48;;;15.60;90.40;;;;;;4997963;28;20042;-70
2021/10/20 07:49:47;;;;;;;14.93;13.10;;;15.70;90.40;;;;;;5004170;28;20029;-70
2021/10/20 07:52:12;;;;;;;14.65;12.43;;;15.70;90.30;;;;;;5002721;28;20029;-71
2021/10/20 07:54:39;;;;;;;13.77;11.98;;;15.80;90.20;;;;;;5002805;28;20046;-72
2021/10/20 07:57:05;;;;;;;21.23;12.82;;;15.90;89.90;;;;;;5005707;28;20425;-70
2021/10/20 07:59:30;;;;;;;15.07;11.63;;;15.90;89.80;;;;;;5010457;28;20139;-69
2021/10/20 08:01:56;;;;;;;14.82;12.20;;;16.00;89.60;;;;;;5007704;28;20037;-71
2021/10/20 08:04:22;;;;;;;18.35;11.73;;;16.00;89.40;;;;;;5006362;28;20034;-70
2021/10/20 08:06:48;;;;;;;14.77;11.52;;;16.10;89.30;;;;;;5004330;28;20034;-70
2021/10/20 08:09:13;;;;;;;17.50;12.15;;;16.10;89.00;;;;;;5003791;28;20454;-71
2021/10/20 08:11:39;;;;;;;15.50;11.00;;;16.10;88.90;;;;;;5007291;28;20042;-70
2021/10/20 08:14:05;;;;;;;15.10;10.80;;;16.20;88.60;;;;;;5008296;28;20042;-69
2021/10/20 08:16:31;;;;;;;13.25;11.55;;;16.20;88.50;;;;;;5002902;28;20545;-69
2021/10/20 08:18:57;;;;;;;15.18;11.50;;;16.30;88.10;;;;;;5005314;28;20038;-71
2021/10/20 08:21:23;;;;;;;14.05;11.20;;;16.40;88.00;;;;;;5004454;28;20224;-71
2021/10/20 08:23:49;;;;;;;18.50;11.95;;;16.40;87.70;;;;;;5007388;28;20026;-71
2021/10/20 08:26:15;;;;;;;13.57;11.13;;;16.40;87.70;;;;;;5007525;28;20401;-70
2021/10/20 08:28:41;;;;;;;16.60;12.23;;;16.40;87.50;;;;;;5011370;28;20480;-70
2021/10/20 08:31:07;;;;;;;12.63;10.77;;;16.30;87.50;;;;;;5007433;28;20111;-71
2021/10/20 08:33:33;;;;;;;16.13;11.65;;;16.40;87.70;;;;;;5004676;28;20466;-71
2021/10/20 08:35:58;;;;;;;14.52;11.65;;;16.50;87.50;;;;;;5005036;28;20042;-70
2021/10/20 08:38:24;;;;;;;14.90;11.68;;;16.60;87.30;;;;;;5003379;28;20046;-70
2021/10/20 08:40:51;;;;;;;14.77;11.70;;;16.60;86.90;;;;;;5003080;28;20085;-71
2021/10/20 08:43:18;;;;;;;14.25;11.05;;;16.80;86.90;;;;;;4996821;28;20496;-70
2021/10/20 08:45:46;;;;;;;14.38;11.80;;;17.00;86.20;;;;;;5009096;28;20049;-74
2021/10/20 08:48:18;;;;;;;13.73;10.68;;;17.10;85.40;;;;;;5006419;28;20057;-70
2021/10/20 08:51:02;;;;;;;11.88;9.57;;;17.10;85.20;;;;;;5011385;28;20073;-72
2021/10/20 08:53:29;;;;;;;12.00;10.13;;;17.00;85.10;;;;;;5010401;28;20034;-70
2021/10/20 08:55:55;;;;;;;14.18;10.68;;;17.00;85.50;;;;;;5012398;28;20056;-71
2021/10/20 08:58:22;;;;;;;13.32;10.43;;;17.10;85.40;;;;;;5009979;28;20042;-73
2021/10/20 09:00:48;;;;;;;13.68;10.45;;;17.10;85.50;;;;;;5011871;28;20092;-74
2021/10/20 09:03:14;;;;;;;11.70;9.80;;;17.20;85.20;;;;;;5004018;28;20127;-73
2021/10/20 09:05:40;;;;;;;11.50;9.90;;;17.30;84.80;;;;;;5010206;28;20022;-70
2021/10/20 09:08:06;;;;;;;12.13;9.35;;;17.40;84.70;;;;;;5008425;28;20526;-71
2021/10/20 09:10:32;;;;;;;12.95;9.88;;;17.50;84.50;;;;;;5011196;28;20111;-72
2021/10/20 09:13:00;;;;;;;13.07;9.00;;;17.50;84.40;;;;;;5008391;28;20088;-72
2021/10/20 09:15:34;;;;;;;13.02;9.57;;;17.50;84.40;;;;;;5009215;28;20485;-75
2021/10/20 09:18:04;;;;;;;12.57;10.00;;;17.50;84.30;;;;;;5007218;28;20034;-71
2021/10/20 09:20:36;;;;;;;12.43;9.05;;;17.40;84.40;;;;;;5008979;28;20474;-72
2021/10/20 09:23:11;;;;;;;12.52;9.30;;;17.40;84.50;;;;;;5004664;28;20034;-72
2021/10/20 09:25:44;;;;;;;11.90;9.52;;;17.40;84.30;;;;;;5006801;28;20113;-72
2021/10/20 09:28:31;;;;;;;14.15;10.07;;;17.40;84.30;;;;;;5003422;28;20057;-72
2021/10/20 09:31:01;;;;;;;11.60;9.98;;;17.50;84.50;;;;;;5010455;28;20030;-72
2021/10/20 09:33:27;;;;;;;11.70;8.90;;;17.60;84.30;;;;;;5008716;28;20482;-72
2021/10/20 09:35:52;;;;;;;13.38;10.18;;;17.60;83.90;;;;;;5012168;28;20022;-72
2021/10/20 09:38:20;;;;;;;11.98;9.25;;;17.60;83.90;;;;;;5007115;28;20436;-72
2021/10/20 09:40:48;;;;;;;11.73;9.50;;;17.60;84.00;;;;;;5010567;28;20033;-72
2021/10/20 09:43:18;;;;;;;12.27;8.63;;;17.60;84.20;;;;;;5009609;28;20030;-78
2021/10/20 09:45:45;;;;;;;11.35;9.38;;;17.60;84.10;;;;;;5010629;28;20041;-75
2021/10/20 09:48:17;;;;;;;13.60;9.70;;;17.70;83.80;;;;;;5009597;28;20057;-73
2021/10/20 09:51:00;;;;;;;11.60;8.80;;;17.80;83.60;;;;;;5014060;28;20030;-75
2021/10/20 09:53:31;;;;;;;15.73;9.48;;;17.80;83.30;;;;;;5008174;28;20058;-72
2021/10/20 09:56:03;;;;;;;10.70;8.23;;;17.80;83.60;;;;;;5012883;28;20097;-70
2021/10/20 09:58:32;;;;;;;13.88;10.60;;;17.80;83.80;;;;;;5007766;28;20030;-73
2021/10/20 10:00:59;;;;;;;11.40;8.95;;;17.80;83.50;;;;;;5011472;28;20029;-73
2021/10/20 10:03:26;;;;;;;12.65;9.07;;;17.80;83.60;;;;;;5024454;28;20038;-72
2021/10/20 10:05:52;;;;;;;11.63;8.32;;;17.90;83.60;;;;;;5007567;28;20369;-72
2021/10/20 10:08:18;;;;;;;10.65;8.93;;;18.00;83.30;;;;;;5008617;28;20034;-73
2021/10/20 10:10:44;;;;;;;11.07;8.85;;;18.10;82.90;;;;;;5010937;28;20022;-73
2021/10/20 10:13:16;;;;;;;11.27;8.43;;;18.10;82.70;;;;;;5002527;28;20030;-72
2021/10/20 10:15:42;;;;;;;13.00;8.85;;;18.00;82.80;;;;;;5002272;28;20113;-73
2021/10/20 10:18:10;;;;;;;11.23;8.43;;;18.00;83.00;;;;;;5007509;28;20117;-73
2021/10/20 10:20:40;;;;;;;14.32;9.20;;;18.00;83.10;;;;;;5003837;28;20424;-73
2021/10/20 10:23:07;;;;;;;11.35;8.48;;;18.00;83.40;;;;;;5006343;28;20425;-72
2021/10/20 10:25:38;;;;;;;11.38;8.57;;;18.00;83.20;;;;;;5002014;28;20053;-73
2021/10/20 10:28:24;;;;;;;10.63;8.60;;;18.10;82.90;;;;;;5007393;28;20077;-73
2021/10/20 10:30:52;;;;;;;13.25;8.95;;;18.10;82.70;;;;;;5003244;28;20026;-73
2021/10/20 10:33:25;;;;;;;10.65;8.48;;;18.20;82.50;;;;;;5002732;28;20038;-72
2021/10/20 10:36:14;;;;;;;12.25;8.18;;;18.30;82.20;;;;;;5006662;28;20529;-72
2021/10/20 10:38:45;;;;;;;12.05;8.82;;;18.40;82.00;;;;;;5004781;28;20377;-74
2021/10/20 10:41:18;;;;;;;10.88;8.40;;;18.50;82.00;;;;;;4996126;28;20232;-78
2021/10/20 10:44:11;;;;;;;11.88;8.77;;;18.40;81.70;;;;;;5017578;28;20125;-76
2021/10/20 10:47:19;;;;;;;10.35;7.50;;;18.60;81.20;;;;;;5008906;28;20030;-73
2021/10/20 10:49:53;;;;;;;11.07;7.85;;;18.60;81.10;;;;;;5004696;28;20048;-74
2021/10/20 10:52:37;;;;;;;9.80;7.70;;;18.70;80.40;;;;;;5018990;28;20033;-75
2021/10/20 10:55:22;;;;;;;12.32;7.15;;;18.80;80.20;;;;;;4999642;28;20044;-76
2021/10/20 10:57:58;;;;;;;11.77;7.50;;;18.90;79.90;;;;;;5001451;28;20053;-73
2021/10/20 11:00:42;;;;;;;11.52;7.03;;;18.90;79.80;;;;;;5001420;28;20038;-74
2021/10/20 11:03:10;;;;;;;9.52;6.78;;;18.80;79.60;;;;;;5013585;28;20040;-74
2021/10/20 11:05:37;;;;;;;10.55;6.95;;;18.70;79.90;;;;;;4999871;28;20022;-72
2021/10/20 11:08:12;;;;;;;9.98;6.72;;;18.60;79.90;;;;;;5006919;28;20195;-73
2021/10/20 11:10:40;;;;;;;10.73;7.00;;;18.60;80.00;;;;;;5000715;28;20382;-72
2021/10/20 11:13:05;;;;;;;10.88;7.03;;;18.80;79.70;;;;;;5003546;28;20535;-72
2021/10/20 11:15:32;;;;;;;11.35;7.00;;;18.80;79.60;;;;;;4998372;28;20034;-77
2021/10/20 11:17:59;;;;;;;12.30;6.70;;;18.80;80.00;;;;;;5002585;28;20060;-73
2021/10/20 11:20:28;;;;;;;11.38;7.30;;;18.80;80.30;;;;;;5000430;28;20026;-74
2021/10/20 11:22:57;;;;;;;9.98;7.07;;;18.90;80.30;;;;;;5003863;28;20036;-73
2021/10/20 11:25:23;;;;;;;12.55;7.30;;;19.00;80.30;;;;;;4998858;28;20030;-73
2021/10/20 11:27:52;;;;;;;11.23;6.80;;;19.10;80.00;;;;;;5013834;28;20499;-73
2021/10/20 11:30:20;;;;;;;9.82;6.63;;;19.00;79.20;;;;;;5002524;28;20417;-73
2021/10/20 11:32:46;;;;;;;9.27;6.75;;;19.10;79.00;;;;;;4998307;28;20369;-73
2021/10/20 11:35:18;;;;;;;11.40;6.07;;;19.10;78.40;;;;;;5003120;28;20037;-77
2021/10/20 11:37:51;;;;;;;11.00;6.30;;;19.10;78.60;;;;;;4996676;28;20044;-76
2021/10/20 11:40:17;;;;;;;13.52;6.28;;;19.20;78.10;;;;;;4996911;28;20030;-76
2021/10/20 11:42:43;;;;;;;11.20;6.55;;;19.20;78.10;;;;;;5002229;28;20386;-75
2021/10/20 11:45:09;;;;;;;12.38;6.07;;;19.20;78.20;;;;;;5003914;28;20773;-74
2021/10/20 11:47:38;;;;;;;9.35;6.13;;;19.20;78.20;;;;;;5006333;28;20030;-74
2021/10/20 11:50:05;;;;;;;10.52;6.28;;;19.20;78.40;;;;;;5006621;28;20473;-73
2021/10/20 11:52:34;;;;;;;10.50;6.38;;;19.10;78.50;;;;;;5013649;28;20045;-72
2021/10/20 11:55:00;;;;;;;12.32;7.00;;;19.10;78.70;;;;;;5006816;28;20516;-73
2021/10/20 11:57:26;;;;;;;11.23;5.85;;;19.00;78.90;;;;;;5007956;28;20030;-73
2021/10/20 11:59:52;;;;;;;10.75;6.00;;;18.90;79.30;;;;;;5009797;28;20091;-74
2021/10/20 12:02:18;;;;;;;11.63;6.15;;;18.80;79.50;;;;;;4992505;28;20499;-73
2021/10/20 12:04:45;;;;;;;10.70;6.10;;;18.80;79.20;;;;;;4997958;28;20030;-75
2021/10/20 12:07:15;;;;;;;12.27;5.85;;;18.90;78.40;;;;;;5003800;28;20103;-77
2021/10/20 12:09:43;;;;;;;9.90;5.78;;;19.00;78.20;;;;;;4998323;28;20042;-72
2021/10/20 12:12:13;;;;;;;11.27;5.03;;;19.00;77.80;;;;;;5013931;28;20034;-72
2021/10/20 12:14:41;;;;;;;9.85;5.15;;;19.00;78.00;;;;;;5008413;28;20049;-75
2021/10/20 12:17:08;;;;;;;10.48;5.68;;;19.10;77.90;;;;;;5003831;28;20483;-74
2021/10/20 12:19:37;;;;;;;11.00;6.07;;;19.10;77.70;;;;;;5008554;28;20466;-72
2021/10/20 12:22:06;;;;;;;11.80;5.70;;;19.10;77.40;;;;;;5006708;28;20022;-73
2021/10/20 12:24:36;;;;;;;12.10;5.97;;;19.20;77.30;;;;;;5010333;28;20666;-72
2021/10/20 12:27:07;;;;;;;11.45;5.63;;;19.10;77.00;;;;;;5015238;28;20404;-72
2021/10/20 12:29:44;;;;;;;11.50;5.72;;;19.10;77.00;;;;;;5016805;28;20029;-79
2021/10/20 12:32:19;;;;;;;11.63;5.57;;;19.10;77.10;;;;;;5006402;28;20033;-75
2021/10/20 12:34:58;;;;;;;11.90;5.35;;;19.10;77.00;;;;;;5002007;28;20058;-75
2021/10/20 12:37:33;;;;;;;12.48;5.60;;;19.20;76.60;;;;;;5015696;28;20033;-74